Accueil
METAR-TAF:

METAR-TAF

Aéroports :

Coatesville, Pennsylvanie, États-Unis

latitude: 39-58-44N, longitude: 075-51-56W, altitude: 201 m

Observation

Le bulletin a été fait il y a 17 minutes, à 07:20 UTC
Vent 4 kt de nord/nord-est
Température 13°C
Humidité 100%
Pression 1001 hPa

METAR: KMQS 300720Z AUTO 03004KT 13/13 A2955 RMK AO2 PWINO

Heure: 03:37 (07:37 UTC)


TAF: absent

Observations et prévisions météorologiques de plus de 4000 aéroports (messages METAR et TAF).

Les stations disponibles sont représentées par des disques jaunes et rouges sur la carte.

Passer la souris dessus pour voir le nom de la station.

Cliquer dessus pour voir les observations et prévisions météorologiques.

Pour changer de carte: cliquez sur les boutons verts avec une croix noire pour zoomer, sur le bouton vert avec un tiret pour effectuer un zoom arrière, ou sur les flèches vertes pour les cartes adjacentes.


METAR-TAF: